This is the latest recevied weather packets stored in our database for station/object E22ZMG-4. If no packets are shown the sender has not sent any weather packets the latest 10 day(s).
| Time | Temp. | Humidity | Pressure | Rain* | Wind** | Luminosity | Snow |
|---|---|---|---|---|---|---|---|
| 1778120251 | 27.78° C | 45% | 976 hPa | - | - | 0 W/m² | - |
| 1778119626 | 28.33° C | 45% | 976 hPa | - | - | 0 W/m² | - |
| 1778119000 | 28.89° C | 52% | 976 hPa | - | - | 0 W/m² | - |
| 1778118376 | 28.89° C | 48% | 976 hPa | - | - | 0 W/m² | - |
| 1778117751 | 28.89° C | 43% | 977 hPa | - | - | 0 W/m² | - |
| 1778117126 | 28.89° C | 46% | 977 hPa | - | - | 0 W/m² | - |
| 1778116501 | 28.89° C | 45% | 977 hPa | - | - | 0 W/m² | - |
| 1778116306 | 28.89° C | 45% | 977 hPa | - | - | 0 W/m² | - |
| 1778115682 | 30° C | 47% | 976 hPa | - | - | 0 W/m² | - |
| 1778115058 | 31.67° C | 57% | 976 hPa | - | - | 0 W/m² | - |
| 1778114433 | 31.11° C | 57% | 976 hPa | - | - | 0 W/m² | - |
| 1778113808 | 31.11° C | 57% | 976 hPa | - | - | 0 W/m² | - |
| 1778112136 | 30.56° C | 57% | 976 hPa | - | - | 0 W/m² | - |
| 1778111512 | 30.56° C | 57% | 976 hPa | - | - | 0 W/m² | - |
| 1778110888 | 30.56° C | 57% | 976 hPa | - | - | 0 W/m² | - |
| 1778110264 | 30.56° C | 57% | 976 hPa | - | - | 0 W/m² | - |
| 1778109639 | 30.56° C | 57% | 976 hPa | - | - | 0 W/m² | - |
| 1778109015 | 30.56° C | 57% | 975 hPa | - | - | 0 W/m² | - |
| 1778108391 | 30.56° C | 57% | 975 hPa | - | - | 0 W/m² | - |
| 1778107767 | 30.56° C | 57% | 975 hPa | - | - | 0 W/m² | - |
| 1778107142 | 30.56° C | 57% | 975 hPa | - | - | 0 W/m² | - |
| 1778106518 | 30.56° C | 56% | 975 hPa | - | - | 0 W/m² | - |
| 1778105894 | 30.56° C | 56% | 975 hPa | - | - | 0 W/m² | - |
| 1778105269 | 30.56° C | 56% | 975 hPa | - | - | 0 W/m² | - |
| 1778104644 | 31.11° C | 56% | 975 hPa | - | - | 0 W/m² | - |
* Rain since midnight (hover to see other rain measurements)
** Current wind speed in m/s (hover to see current wind gust speed)